createdAt,value
2019-03-25T00:00:38.896Z,4.58
2019-03-25T00:03:11.808Z,4.49
2019-03-25T00:05:43.156Z,4.50
2019-03-25T00:08:15.512Z,4.50
2019-03-25T00:10:46.776Z,4.50
2019-03-25T00:13:18.082Z,4.42
2019-03-25T00:15:49.530Z,4.39
2019-03-25T00:18:20.857Z,4.39
2019-03-25T00:20:52.626Z,4.38
2019-03-25T00:23:23.962Z,4.33
2019-03-25T00:25:55.301Z,4.31
2019-03-25T00:28:26.632Z,4.31
2019-03-25T00:30:57.975Z,4.31
2019-03-25T00:33:29.322Z,4.24
2019-03-25T00:36:00.727Z,4.17
2019-03-25T00:38:33.680Z,4.17
2019-03-25T00:41:05.594Z,4.06
2019-03-25T00:43:37.932Z,4.00
2019-03-25T00:46:09.378Z,3.95
2019-03-25T00:48:40.777Z,3.90
2019-03-25T00:51:12.137Z,3.93
2019-03-25T00:53:43.517Z,4.01
2019-03-25T00:56:14.918Z,4.08
2019-03-25T00:58:46.865Z,4.07
2019-03-25T01:01:18.105Z,4.12
2019-03-25T01:03:49.382Z,4.09
2019-03-25T01:06:20.677Z,4.09
2019-03-25T01:08:52.002Z,4.24
2019-03-25T01:11:23.337Z,4.17
2019-03-25T01:13:55.977Z,4.10
2019-03-25T01:16:27.262Z,4.03
2019-03-25T01:18:59.929Z,3.90
2019-03-25T01:21:31.164Z,3.88
2019-03-25T01:24:02.414Z,3.78
2019-03-25T01:26:33.757Z,3.66
2019-03-25T01:29:05.081Z,3.63
2019-03-25T01:31:36.415Z,3.59
2019-03-25T01:34:07.831Z,3.52
2019-03-25T01:36:39.140Z,3.50
2019-03-25T01:39:10.452Z,3.64
2019-03-25T01:41:41.844Z,3.66
2019-03-25T01:44:13.140Z,3.66
2019-03-25T01:46:44.447Z,3.62
2019-03-25T01:49:15.812Z,3.59
2019-03-25T01:51:48.183Z,3.56
2019-03-25T01:54:20.523Z,3.60
2019-03-25T01:56:51.873Z,3.62
2019-03-25T01:59:23.190Z,3.58
2019-03-25T02:01:54.547Z,3.54
2019-03-25T02:04:28.413Z,3.52
2019-03-25T02:06:59.758Z,3.46
2019-03-25T02:09:31.116Z,3.48
2019-03-25T02:12:02.705Z,3.45
2019-03-25T02:14:34.052Z,3.38
2019-03-25T02:17:09.154Z,3.35
2019-03-25T02:19:39.704Z,3.29
2019-03-25T02:22:10.767Z,3.26
2019-03-25T02:24:42.084Z,3.22
2019-03-25T02:27:13.302Z,3.18
2019-03-25T02:29:44.611Z,3.17
2019-03-25T02:32:15.960Z,3.14
2019-03-25T02:34:47.275Z,3.06
2019-03-25T02:37:18.507Z,3.02
2019-03-25T02:39:49.858Z,3.03
2019-03-25T02:42:22.928Z,3.03
2019-03-25T02:44:54.300Z,3.03
2019-03-25T02:47:25.618Z,3.00
2019-03-25T02:49:56.918Z,2.99
2019-03-25T02:52:28.149Z,3.01
2019-03-25T02:54:59.424Z,2.92
2019-03-25T02:57:30.766Z,2.90
2019-03-25T03:00:03.090Z,2.90
2019-03-25T03:02:35.575Z,2.83
2019-03-25T03:05:07.344Z,2.82
2019-03-25T03:07:38.637Z,2.85
2019-03-25T03:10:10.076Z,2.76
2019-03-25T03:12:41.516Z,2.67
2019-03-25T03:15:12.787Z,2.66
2019-03-25T03:17:44.076Z,2.56
2019-03-25T03:20:15.373Z,2.59
2019-03-25T03:22:46.723Z,2.61
2019-03-25T03:25:18.189Z,2.60
2019-03-25T03:27:49.429Z,2.52
2019-03-25T03:30:21.016Z,2.45
2019-03-25T03:32:54.134Z,2.41
2019-03-25T03:35:25.556Z,2.39
2019-03-25T03:37:56.874Z,2.40
2019-03-25T03:40:28.190Z,2.41
2019-03-25T03:42:59.493Z,2.41
2019-03-25T03:45:30.856Z,2.42
2019-03-25T03:48:02.309Z,2.43
2019-03-25T03:50:33.645Z,2.43
2019-03-25T03:53:05.170Z,2.40
2019-03-25T03:55:36.504Z,2.43
2019-03-25T03:58:07.890Z,2.49
2019-03-25T04:00:39.356Z,2.59
2019-03-25T04:03:11.087Z,2.65
2019-03-25T04:05:42.495Z,2.60
2019-03-25T04:08:13.817Z,2.71
2019-03-25T04:10:45.305Z,2.94
2019-03-25T04:13:18.898Z,3.29
2019-03-25T04:15:50.278Z,3.31
2019-03-25T04:18:25.511Z,3.57
2019-03-25T04:20:58.875Z,4.10
2019-03-25T04:23:30.169Z,4.42
2019-03-25T04:26:01.478Z,4.76
2019-03-25T04:28:32.823Z,4.67
2019-03-25T04:31:04.215Z,4.96
2019-03-25T04:33:35.413Z,5.50
2019-03-25T04:36:07.837Z,5.95
2019-03-25T04:38:39.075Z,6.60
2019-03-25T04:41:10.396Z,6.86
2019-03-25T04:43:41.762Z,6.86
2019-03-25T04:46:13.974Z,7.05
2019-03-25T04:48:45.330Z,7.46
2019-03-25T04:51:16.678Z,8.06
2019-03-25T04:53:48.110Z,8.14
2019-03-25T04:56:19.410Z,8.57
2019-03-25T04:58:50.717Z,9.21
2019-03-25T05:01:23.163Z,9.58
2019-03-25T05:03:54.413Z,9.46
2019-03-25T05:06:25.768Z,10.06
2019-03-25T05:08:57.101Z,10.64
2019-03-25T05:11:30.873Z,10.09
2019-03-25T05:14:01.466Z,10.52
2019-03-25T05:16:32.813Z,11.11
2019-03-25T05:19:04.172Z,11.09
2019-03-25T05:21:36.570Z,10.98
2019-03-25T05:24:08.955Z,11.39
2019-03-25T05:26:50.588Z,11.68
2019-03-25T05:29:13.733Z,12.21
2019-03-25T05:31:45.122Z,12.24
2019-03-25T05:34:17.979Z,12.25
2019-03-25T05:36:49.434Z,12.60
2019-03-25T05:39:20.765Z,13.13
2019-03-25T05:41:52.148Z,12.91
2019-03-25T05:44:23.544Z,12.56
2019-03-25T05:46:54.870Z,13.14
2019-03-25T05:49:26.246Z,14.07
2019-03-25T05:51:59.538Z,13.62
2019-03-25T05:54:30.879Z,14.28
2019-03-25T05:57:03.026Z,14.24
2019-03-25T05:59:34.536Z,14.43
2019-03-25T06:02:06.928Z,14.30
2019-03-25T06:04:38.121Z,14.33
2019-03-25T06:07:09.709Z,15.22
2019-03-25T06:09:41.122Z,15.13
2019-03-25T06:12:12.320Z,15.63
2019-03-25T06:14:44.685Z,15.31
2019-03-25T06:17:16.063Z,15.45
2019-03-25T06:19:47.381Z,16.00
2019-03-25T06:22:22.286Z,15.75
2019-03-25T06:24:53.602Z,16.35
2019-03-25T06:27:25.051Z,15.93
2019-03-25T06:29:56.510Z,15.99
2019-03-25T06:32:30.728Z,16.54
2019-03-25T06:35:02.150Z,16.41
2019-03-25T06:37:36.432Z,16.41
2019-03-25T06:40:07.870Z,17.71
2019-03-25T06:42:39.271Z,16.75
2019-03-25T06:45:11.126Z,17.39
2019-03-25T06:47:43.506Z,17.33
2019-03-25T06:50:14.922Z,16.62
2019-03-25T06:52:46.281Z,16.86
2019-03-25T06:55:17.596Z,17.30
2019-03-25T06:57:48.946Z,18.21
2019-03-25T07:00:20.834Z,17.65
2019-03-25T07:02:54.282Z,17.53
2019-03-25T07:05:25.618Z,17.31
2019-03-25T07:07:57.046Z,17.75
2019-03-25T07:10:33.570Z,18.36
2019-03-25T07:13:05.784Z,21.69
2019-03-25T07:15:37.209Z,18.61
2019-03-25T07:18:09.692Z,21.28
2019-03-25T07:20:41.305Z,20.92
2019-03-25T07:23:13.758Z,19.56
2019-03-25T07:25:45.307Z,20.24
2019-03-25T07:28:17.188Z,22.39
2019-03-25T07:30:48.695Z,21.90
2019-03-25T07:33:26.332Z,20.77
2019-03-25T07:35:57.955Z,19.20
2019-03-25T07:38:31.074Z,20.29
2019-03-25T07:41:05.729Z,19.69
2019-03-25T07:43:37.181Z,20.81
2019-03-25T07:46:08.677Z,21.26
2019-03-25T07:48:41.646Z,19.89
2019-03-25T07:51:13.224Z,20.01
2019-03-25T07:53:44.880Z,18.53
2019-03-25T07:56:16.157Z,18.06
2019-03-25T07:58:47.524Z,16.02
2019-03-25T08:01:18.880Z,16.36
2019-03-25T08:03:52.376Z,15.29
2019-03-25T08:06:23.884Z,14.72
2019-03-25T08:09:03.701Z,15.06
2019-03-25T08:11:30.399Z,14.80
2019-03-25T08:14:01.847Z,14.82
2019-03-25T08:16:33.288Z,14.64
2019-03-25T08:19:04.611Z,14.47
2019-03-25T08:21:36.954Z,14.72
2019-03-25T08:24:08.201Z,14.38
2019-03-25T08:26:42.896Z,14.71
2019-03-25T08:29:14.134Z,14.97
2019-03-25T08:31:46.373Z,15.20
2019-03-25T08:34:17.919Z,15.86
2019-03-25T08:36:50.308Z,16.18
2019-03-25T08:39:21.703Z,16.41
2019-03-25T08:41:53.069Z,15.81
2019-03-25T08:44:24.498Z,13.86
2019-03-25T08:46:55.895Z,14.21
2019-03-25T08:49:27.257Z,14.58
2019-03-25T08:51:59.803Z,14.66
2019-03-25T08:54:33.377Z,14.54
2019-03-25T08:57:05.056Z,14.09
2019-03-25T08:59:37.102Z,13.79
2019-03-25T09:02:10.386Z,14.23
2019-03-25T09:04:43.081Z,14.12
2019-03-25T09:07:14.467Z,13.91
2019-03-25T09:09:45.851Z,13.74
2019-03-25T09:12:19.073Z,13.84
2019-03-25T09:14:51.407Z,14.35
2019-03-25T09:17:24.082Z,14.20
2019-03-25T09:19:55.517Z,13.99
2019-03-25T09:22:27.055Z,14.10
2019-03-25T09:24:58.654Z,13.96
2019-03-25T09:27:32.942Z,14.18
2019-03-25T09:30:06.031Z,14.07
2019-03-25T09:32:39.446Z,13.80
2019-03-25T09:35:11.133Z,14.17
2019-03-25T09:37:43.506Z,14.67
2019-03-25T09:40:14.836Z,14.46
2019-03-25T09:42:46.146Z,14.56
2019-03-25T09:45:17.502Z,14.49
2019-03-25T09:47:49.944Z,14.11
2019-03-25T09:50:21.374Z,13.86
2019-03-25T09:52:52.798Z,13.78
2019-03-25T09:55:24.148Z,13.56
2019-03-25T09:57:55.703Z,13.65
2019-03-25T10:00:34.833Z,13.66
2019-03-25T10:03:06.323Z,13.63
2019-03-25T10:05:41.011Z,13.53
2019-03-25T10:08:12.386Z,13.73
2019-03-25T10:10:47.150Z,14.07
2019-03-25T10:13:22.679Z,14.15
2019-03-25T10:15:54.297Z,14.16
2019-03-25T10:18:28.757Z,13.75
2019-03-25T10:21:00.198Z,14.00
2019-03-25T10:23:31.738Z,14.24
2019-03-25T10:26:03.104Z,14.17
2019-03-25T10:28:34.487Z,14.22
2019-03-25T10:31:05.812Z,14.09
2019-03-25T10:33:37.211Z,14.16
2019-03-25T10:36:09.775Z,14.13
2019-03-25T10:38:43.008Z,13.80
2019-03-25T10:41:15.651Z,13.75
2019-03-25T10:43:51.714Z,13.83
2019-03-25T10:46:23.053Z,13.85
2019-03-25T10:48:55.595Z,13.88
2019-03-25T10:51:27.087Z,13.89
2019-03-25T10:53:58.520Z,14.14
2019-03-25T10:56:30.378Z,14.28
2019-03-25T10:59:03.363Z,13.88
2019-03-25T11:01:39.419Z,14.15
2019-03-25T11:04:12.088Z,13.88
2019-03-25T11:06:43.522Z,14.04
2019-03-25T11:09:16.575Z,14.25
2019-03-25T11:11:48.198Z,14.11
2019-03-25T11:14:19.705Z,13.91
2019-03-25T11:16:51.130Z,13.57
2019-03-25T11:19:24.529Z,13.58
2019-03-25T11:21:56.929Z,13.31
2019-03-25T11:24:28.282Z,13.46
2019-03-25T11:26:59.980Z,13.52
2019-03-25T11:29:31.702Z,13.91
2019-03-25T11:32:04.776Z,13.84
2019-03-25T11:34:37.316Z,13.75
2019-03-25T11:37:09.741Z,13.52
2019-03-25T11:39:41.560Z,13.44
2019-03-25T11:42:15.856Z,13.62
2019-03-25T11:44:47.392Z,13.67
2019-03-25T11:47:18.797Z,13.48
2019-03-25T11:49:51.259Z,13.31
2019-03-25T11:52:31.015Z,13.44
2019-03-25T11:55:02.488Z,13.50
2019-03-25T11:57:33.943Z,13.79
2019-03-25T12:00:09.284Z,13.77
2019-03-25T12:02:42.273Z,13.94
2019-03-25T12:05:14.744Z,13.62
2019-03-25T12:07:46.223Z,13.61
2019-03-25T12:10:33.346Z,13.59
2019-03-25T12:13:05.123Z,13.64
2019-03-25T12:15:37.949Z,13.20
2019-03-25T12:18:11.926Z,13.42
2019-03-25T12:20:43.816Z,13.76
2019-03-25T12:23:25.759Z,13.75
2019-03-25T12:25:49.445Z,13.76
2019-03-25T12:28:21.008Z,13.73
2019-03-25T12:30:52.991Z,13.87
2019-03-25T12:33:26.407Z,14.17
2019-03-25T12:36:01.539Z,13.90
2019-03-25T12:38:33.108Z,13.53
2019-03-25T12:41:04.698Z,13.53
2019-03-25T12:43:37.727Z,13.82
2019-03-25T12:46:10.742Z,13.84
2019-03-25T12:48:42.233Z,13.29
2019-03-25T12:51:13.544Z,13.14
2019-03-25T12:53:45.253Z,12.91
2019-03-25T12:56:16.740Z,13.20
2019-03-25T12:58:49.142Z,13.08
2019-03-25T13:01:20.768Z,13.19
2019-03-25T13:03:54.288Z,13.29
2019-03-25T13:06:26.128Z,13.44
2019-03-25T13:09:05.481Z,13.03
2019-03-25T13:11:39.986Z,12.85
2019-03-25T13:14:28.277Z,12.75
2019-03-25T13:17:00.296Z,12.79
2019-03-25T13:19:36.945Z,12.88
2019-03-25T13:22:09.380Z,12.95
2019-03-25T13:24:42.180Z,12.87
2019-03-25T13:27:17.302Z,13.04
2019-03-25T13:29:54.529Z,13.17
2019-03-25T13:32:35.073Z,13.20
2019-03-25T13:35:07.032Z,13.27
2019-03-25T13:37:38.515Z,13.12
2019-03-25T13:40:12.680Z,13.25
2019-03-25T13:42:44.391Z,13.15
2019-03-25T13:45:17.050Z,13.05
2019-03-25T13:47:48.680Z,13.03
2019-03-25T13:50:20.341Z,13.04
2019-03-25T13:52:52.876Z,12.79
2019-03-25T13:55:30.088Z,12.69
2019-03-25T13:58:02.472Z,12.78
2019-03-25T14:00:40.101Z,12.74
2019-03-25T14:03:14.943Z,12.72
2019-03-25T14:05:49.069Z,12.64
2019-03-25T14:08:21.479Z,12.69
2019-03-25T14:10:53.071Z,12.75
2019-03-25T14:13:24.646Z,12.61
2019-03-25T14:15:58.215Z,12.61
2019-03-25T14:18:34.520Z,12.59
2019-03-25T14:21:06.059Z,12.47
2019-03-25T14:23:38.694Z,12.30
2019-03-25T14:26:13.526Z,12.10
2019-03-25T14:28:50.621Z,12.14
2019-03-25T14:31:29.479Z,12.00
2019-03-25T14:34:02.988Z,11.82
2019-03-25T14:36:34.466Z,11.81
2019-03-25T14:39:07.355Z,11.92
2019-03-25T14:41:38.862Z,11.83
2019-03-25T14:44:11.012Z,11.79
2019-03-25T14:46:44.714Z,11.80
2019-03-25T14:49:18.182Z,11.89
2019-03-25T14:51:49.814Z,11.97
2019-03-25T14:54:23.846Z,11.85
2019-03-25T14:56:55.383Z,11.87
2019-03-25T14:59:28.104Z,11.86
2019-03-25T15:02:05.977Z,11.70
2019-03-25T15:04:34.331Z,11.57
2019-03-25T15:07:05.877Z,11.49
2019-03-25T15:09:37.284Z,11.51
2019-03-25T15:12:12.528Z,11.47
2019-03-25T15:14:44.964Z,11.45
2019-03-25T15:17:16.534Z,11.43
2019-03-25T15:19:49.123Z,11.43
2019-03-25T15:22:20.508Z,11.45
2019-03-25T15:24:53.755Z,11.44
2019-03-25T15:27:25.396Z,11.42
2019-03-25T15:30:01.188Z,11.36
2019-03-25T15:32:34.461Z,11.36
2019-03-25T15:35:16.781Z,11.30
2019-03-25T15:38:01.584Z,11.26
2019-03-25T15:40:43.395Z,11.21
2019-03-25T15:43:26.826Z,11.23
2019-03-25T15:45:58.233Z,11.23
2019-03-25T15:48:32.124Z,11.21
2019-03-25T15:51:05.151Z,11.21
2019-03-25T15:53:36.601Z,11.21
2019-03-25T15:56:10.652Z,11.15
2019-03-25T15:58:43.969Z,11.17
2019-03-25T16:01:15.478Z,11.16
2019-03-25T16:03:47.058Z,11.16
2019-03-25T16:06:18.625Z,11.21
2019-03-25T16:08:51.495Z,11.14
2019-03-25T16:11:24.236Z,11.09
2019-03-25T16:13:58.252Z,11.10
2019-03-25T16:16:30.442Z,11.09
2019-03-25T16:19:05.466Z,11.03
2019-03-25T16:21:37.144Z,11.02
2019-03-25T16:24:10.088Z,11.00
2019-03-25T16:26:41.615Z,10.95
2019-03-25T16:29:13.019Z,10.93
2019-03-25T16:31:44.525Z,10.91
2019-03-25T16:34:18.492Z,10.98
2019-03-25T16:36:50.285Z,10.95
2019-03-25T16:39:24.400Z,10.88
2019-03-25T16:41:57.900Z,10.96
2019-03-25T16:44:29.347Z,10.93
2019-03-25T16:47:00.885Z,10.95
2019-03-25T16:49:32.243Z,10.94
2019-03-25T16:52:08.162Z,10.94
2019-03-25T16:54:39.733Z,10.92
2019-03-25T16:57:11.324Z,10.86
2019-03-25T16:59:43.778Z,10.82
2019-03-25T17:02:15.263Z,10.75
2019-03-25T17:04:46.983Z,10.64
2019-03-25T17:07:18.394Z,10.64
2019-03-25T17:09:49.806Z,10.69
2019-03-25T17:12:21.125Z,10.62
2019-03-25T17:14:55.917Z,10.62
2019-03-25T17:17:27.277Z,10.48
2019-03-25T17:19:59.650Z,10.23
2019-03-25T17:22:31.044Z,10.22
2019-03-25T17:25:02.463Z,10.06
2019-03-25T17:27:34.024Z,10.01
2019-03-25T17:30:11.554Z,9.74
2019-03-25T17:32:43.049Z,9.56
2019-03-25T17:35:14.422Z,9.41
2019-03-25T17:37:46.101Z,9.29
2019-03-25T17:40:17.502Z,9.21
2019-03-25T17:42:49.087Z,9.16
2019-03-25T17:45:21.269Z,9.11
2019-03-25T17:47:52.937Z,9.08
2019-03-25T17:50:25.791Z,9.04
2019-03-25T17:52:57.461Z,8.93
2019-03-25T17:55:29.095Z,9.00
2019-03-25T17:58:02.226Z,8.83
2019-03-25T18:00:49.066Z,8.76
2019-03-25T18:03:20.323Z,8.70
2019-03-25T18:05:51.738Z,8.77
2019-03-25T18:08:23.791Z,8.79
2019-03-25T18:10:55.269Z,8.69
2019-03-25T18:13:32.032Z,8.74
2019-03-25T18:16:03.556Z,8.66
2019-03-25T18:18:38.831Z,8.67
2019-03-25T18:21:10.173Z,8.68
2019-03-25T18:23:41.606Z,8.73
2019-03-25T18:26:13.090Z,8.76
2019-03-25T18:28:45.477Z,8.86
2019-03-25T18:31:16.806Z,8.79
2019-03-25T18:33:48.191Z,8.84
2019-03-25T18:36:19.559Z,8.83
2019-03-25T18:38:50.910Z,8.74
2019-03-25T18:41:23.702Z,8.89
2019-03-25T18:43:55.081Z,8.81
2019-03-25T18:46:26.595Z,8.83
2019-03-25T18:48:58.151Z,8.83
2019-03-25T18:51:29.671Z,8.66
2019-03-25T18:54:00.988Z,8.74
2019-03-25T18:56:32.445Z,8.74
2019-03-25T18:59:04.036Z,8.79
2019-03-25T19:01:35.390Z,8.66
2019-03-25T19:04:06.956Z,8.68
2019-03-25T19:06:38.722Z,8.78
2019-03-25T19:09:11.657Z,8.87
2019-03-25T19:11:43.081Z,8.78
2019-03-25T19:14:15.502Z,8.86
2019-03-25T19:16:46.973Z,8.99
2019-03-25T19:19:20.069Z,8.85
2019-03-25T19:21:53.161Z,8.85
2019-03-25T19:24:26.155Z,8.85
2019-03-25T19:26:57.496Z,8.93
2019-03-25T19:29:28.985Z,8.93
2019-03-25T19:32:06.509Z,8.93
2019-03-25T19:34:33.297Z,8.84
2019-03-25T19:37:04.719Z,8.78
2019-03-25T19:39:37.175Z,8.87
2019-03-25T19:42:08.876Z,8.69
2019-03-25T19:44:41.243Z,8.73
2019-03-25T19:47:12.598Z,8.73
2019-03-25T19:49:46.017Z,8.80
2019-03-25T19:52:17.442Z,8.87
2019-03-25T19:54:49.845Z,8.58
2019-03-25T19:57:21.294Z,8.41
2019-03-25T19:59:55.223Z,8.45
2019-03-25T20:02:26.816Z,8.45
2019-03-25T20:04:58.123Z,8.19
2019-03-25T20:07:29.597Z,7.97
2019-03-25T20:10:00.982Z,7.90
2019-03-25T20:12:32.287Z,7.78
2019-03-25T20:15:07.136Z,7.79
2019-03-25T20:17:38.472Z,7.75
2019-03-25T20:20:09.890Z,7.73
2019-03-25T20:22:41.218Z,7.74
2019-03-25T20:25:12.649Z,7.76
2019-03-25T20:27:44.174Z,7.76
2019-03-25T20:30:15.541Z,7.80
2019-03-25T20:32:46.982Z,7.79
2019-03-25T20:35:18.457Z,7.79
2019-03-25T20:37:49.777Z,7.81
2019-03-25T20:40:21.185Z,7.84
2019-03-25T20:42:52.493Z,7.75
2019-03-25T20:45:23.874Z,7.91
2019-03-25T20:47:55.307Z,7.81
2019-03-25T20:50:26.666Z,7.81
2019-03-25T20:52:57.930Z,7.89
2019-03-25T20:55:30.224Z,7.96
2019-03-25T20:58:02.644Z,7.96
2019-03-25T21:00:45.910Z,8.01
2019-03-25T21:03:18.133Z,8.11
2019-03-25T21:05:49.517Z,8.09
2019-03-25T21:08:20.897Z,7.99
2019-03-25T21:10:53.203Z,7.99
2019-03-25T21:13:24.573Z,8.07
2019-03-25T21:15:56.151Z,8.16
2019-03-25T21:18:27.519Z,8.10
2019-03-25T21:20:59.867Z,8.07
2019-03-25T21:23:32.297Z,8.10
2019-03-25T21:26:03.731Z,8.10
2019-03-25T21:28:35.069Z,8.12
2019-03-25T21:31:06.400Z,8.08
2019-03-25T21:33:37.824Z,8.01
2019-03-25T21:36:09.223Z,7.95
2019-03-25T21:38:40.628Z,7.93
2019-03-25T21:41:11.975Z,7.92
2019-03-25T21:43:43.310Z,7.99
2019-03-25T21:46:14.641Z,7.94
2019-03-25T21:48:46.009Z,7.90
2019-03-25T21:51:17.441Z,7.87
2019-03-25T21:53:48.707Z,7.87
2019-03-25T21:56:19.926Z,7.91
2019-03-25T21:58:51.188Z,7.79
2019-03-25T22:01:22.368Z,7.76
2019-03-25T22:03:54.648Z,7.74
2019-03-25T22:06:25.875Z,7.73
2019-03-25T22:08:57.126Z,7.72
2019-03-25T22:11:28.331Z,7.70
2019-03-25T22:13:59.555Z,7.67
2019-03-25T22:16:30.778Z,7.59
2019-03-25T22:19:02.142Z,7.61
2019-03-25T22:21:33.490Z,7.66
2019-03-25T22:24:04.820Z,7.59
2019-03-25T22:26:37.108Z,7.58
2019-03-25T22:29:08.437Z,7.56
2019-03-25T22:31:39.545Z,7.46
2019-03-25T22:34:10.777Z,7.47
2019-03-25T22:36:41.965Z,7.44
2019-03-25T22:39:13.214Z,7.37
2019-03-25T22:41:44.404Z,7.34
2019-03-25T22:44:15.637Z,7.37
2019-03-25T22:46:46.857Z,7.39
2019-03-25T22:49:18.851Z,7.36
2019-03-25T22:51:51.167Z,7.39
2019-03-25T22:54:22.312Z,7.31
2019-03-25T22:56:53.512Z,7.30
2019-03-25T22:59:24.879Z,7.26
2019-03-25T23:01:55.989Z,7.22
2019-03-25T23:04:28.043Z,7.27
2019-03-25T23:06:59.258Z,7.23
2019-03-25T23:09:30.471Z,7.12
2019-03-25T23:12:03.121Z,7.09
2019-03-25T23:14:34.388Z,7.12
2019-03-25T23:17:05.591Z,7.11
2019-03-25T23:19:38.620Z,7.15
2019-03-25T23:22:09.657Z,7.15
2019-03-25T23:24:40.897Z,7.13
2019-03-25T23:27:12.277Z,7.05
2019-03-25T23:29:43.551Z,7.05
2019-03-25T23:32:14.775Z,6.99
2019-03-25T23:34:45.983Z,7.00
2019-03-25T23:37:18.362Z,7.01
2019-03-25T23:39:49.610Z,7.02
2019-03-25T23:42:20.857Z,7.04
2019-03-25T23:44:52.117Z,6.93
2019-03-25T23:47:23.344Z,6.93
2019-03-25T23:49:54.594Z,6.93
2019-03-25T23:52:26.003Z,6.95
2019-03-25T23:54:57.268Z,6.99
2019-03-25T23:57:28.569Z,6.96
2019-03-25T23:59:59.804Z,6.93
